createdAt,value
2023-03-31T00:01:01.133Z,99676.90
2023-03-31T00:02:05.237Z,99679.53
2023-03-31T00:03:07.353Z,99679.53
2023-03-31T00:04:10.658Z,99680.47
2023-03-31T00:05:12.925Z,99676.98
2023-03-31T00:06:15.862Z,99675.30
2023-03-31T00:07:19.566Z,99677.07
2023-03-31T00:08:21.788Z,99674.45
2023-03-31T00:09:24.183Z,99683.23
2023-03-31T00:11:38.202Z,99678.53
2023-03-31T00:12:40.469Z,99674.61
2023-03-31T00:13:42.545Z,99681.50
2023-03-31T00:14:44.688Z,99687.62
2023-03-31T00:15:46.696Z,99679.70
2023-03-31T00:16:48.753Z,99687.58
2023-03-31T00:17:51.108Z,99686.67
2023-03-31T00:18:53.334Z,99687.58
2023-03-31T00:19:55.775Z,99690.20
2023-03-31T00:21:16.017Z,99686.75
2023-03-31T00:22:18.557Z,99682.48
2023-03-31T00:23:20.767Z,99685.03
2023-03-31T00:24:22.774Z,99685.03
2023-03-31T00:25:24.826Z,99680.77
2023-03-31T00:26:28.026Z,99677.11
2023-03-31T00:27:31.131Z,99677.89
2023-03-31T00:28:33.283Z,99672.55
2023-03-31T00:29:35.607Z,99668.16
2023-03-31T00:30:38.323Z,99674.27
2023-03-31T00:31:40.535Z,99672.51
2023-03-31T00:32:43.768Z,99679.53
2023-03-31T00:33:46.211Z,99673.45
2023-03-31T00:34:48.361Z,99672.55
2023-03-31T00:35:53.591Z,99676.08
2023-03-31T00:36:56.134Z,99665.58
2023-03-31T00:37:58.463Z,99668.29
2023-03-31T00:39:03.394Z,99663.77
2023-03-31T00:40:07.210Z,99665.53
2023-03-31T00:41:09.546Z,99668.20
2023-03-31T00:42:11.915Z,99667.30
2023-03-31T00:43:29.899Z,99669.02
2023-03-31T00:44:32.289Z,99666.48
2023-03-31T00:45:34.806Z,99663.86
2023-03-31T00:46:44.042Z,99670.83
2023-03-31T00:48:58.419Z,99662.52
2023-03-31T00:50:00.746Z,99670.83
2023-03-31T00:51:06.897Z,99666.48
2023-03-31T00:52:15.736Z,99660.23
2023-03-31T00:53:21.572Z,99655.03
2023-03-31T00:54:26.732Z,99660.23
2023-03-31T00:56:44.472Z,99650.98
2023-03-31T00:57:48.096Z,99654.98
2023-03-31T00:58:50.408Z,99657.56
2023-03-31T00:59:56.130Z,99648.70
2023-03-31T01:01:01.573Z,99653.05
2023-03-31T01:02:04.452Z,99645.13
2023-03-31T01:03:08.318Z,99644.27
2023-03-31T01:04:13.502Z,99651.25
2023-03-31T01:05:16.174Z,99644.19
2023-03-31T01:06:19.074Z,99641.51
2023-03-31T01:08:50.880Z,99640.25
2023-03-31T01:09:56.862Z,99639.02
2023-03-31T01:12:17.175Z,99631.52
2023-03-31T01:13:22.413Z,99633.67
2023-03-31T01:14:25.567Z,99638.06
2023-03-31T01:15:27.789Z,99645.81
2023-03-31T01:16:29.843Z,99633.50
2023-03-31T01:17:33.116Z,99630.14
2023-03-31T01:18:35.872Z,99633.50
2023-03-31T01:20:04.887Z,99620.31
2023-03-31T01:21:28.094Z,99620.31
2023-03-31T01:23:03.238Z,99623.67
2023-03-31T01:24:33.437Z,99621.05
2023-03-31T01:27:27.676Z,99612.63
2023-03-31T01:28:34.924Z,99612.22
2023-03-31T01:30:02.554Z,99614.75
2023-03-31T01:31:43.213Z,99612.17
2023-03-31T01:32:49.151Z,99613.03
2023-03-31T01:34:01.307Z,99612.08
2023-03-31T01:36:58.519Z,99608.14
2023-03-31T01:38:39.310Z,99597.41
2023-03-31T01:39:54.203Z,99606.06
2023-03-31T01:44:03.527Z,99603.02
2023-03-31T01:45:21.450Z,99607.92
2023-03-31T01:46:39.496Z,99608.64
2023-03-31T01:48:00.493Z,99600.71
2023-03-31T01:49:29.456Z,99601.48
2023-03-31T01:52:31.570Z,99595.72
2023-03-31T01:53:37.580Z,99596.41
2023-03-31T01:54:56.040Z,99594.69
2023-03-31T01:56:19.652Z,99596.41
2023-03-31T01:57:40.822Z,99601.76
2023-03-31T01:58:56.082Z,99598.22
2023-03-31T02:00:10.376Z,99598.22
2023-03-31T02:01:19.218Z,99601.66
2023-03-31T02:02:34.773Z,99600.89
2023-03-31T02:03:40.671Z,99605.29
2023-03-31T02:04:49.538Z,99594.91
2023-03-31T02:07:15.906Z,99592.02
2023-03-31T02:09:52.825Z,99589.53
2023-03-31T02:10:56.901Z,99591.79
2023-03-31T02:12:02.163Z,99591.66
2023-03-31T02:13:06.552Z,99583.72
2023-03-31T02:14:12.329Z,99582.87
2023-03-31T02:15:18.809Z,99581.14
2023-03-31T02:16:24.833Z,99578.56
2023-03-31T02:17:28.085Z,99580.28
2023-03-31T02:18:33.524Z,99572.45
2023-03-31T02:19:39.331Z,99574.17
2023-03-31T02:20:44.102Z,99573.31
2023-03-31T02:21:50.427Z,99571.64
2023-03-31T02:22:57.044Z,99565.48
2023-03-31T02:24:02.977Z,99567.30
2023-03-31T02:25:09.765Z,99563.89
2023-03-31T02:27:36.828Z,99552.06
2023-03-31T02:28:40.349Z,99557.77
2023-03-31T02:29:43.042Z,99552.39
2023-03-31T02:31:18.288Z,99553.25
2023-03-31T02:32:40.898Z,99548.81
2023-03-31T02:33:43.760Z,99543.52
2023-03-31T02:34:46.217Z,99549.63
2023-03-31T02:35:48.555Z,99542.56
2023-03-31T02:36:51.180Z,99546.00
2023-03-31T02:37:53.374Z,99537.16
2023-03-31T02:40:13.894Z,99528.20
2023-03-31T02:41:16.325Z,99536.59
2023-03-31T02:42:19.680Z,99531.34
2023-03-31T02:43:23.898Z,99527.07
2023-03-31T02:44:26.668Z,99532.24
2023-03-31T02:45:47.220Z,99530.42
2023-03-31T02:46:50.002Z,99533.05
2023-03-31T02:47:52.903Z,99524.22
2023-03-31T02:48:58.355Z,99526.03
2023-03-31T02:50:03.771Z,99529.52
2023-03-31T02:51:13.936Z,99539.13
2023-03-31T02:52:35.498Z,99537.30
2023-03-31T02:55:40.841Z,99528.91
2023-03-31T02:57:03.958Z,99527.66
2023-03-31T02:58:10.336Z,99527.52
2023-03-31T02:59:28.232Z,99523.17
2023-03-31T03:00:34.119Z,99534.58
2023-03-31T03:01:56.815Z,99528.52
2023-03-31T03:03:19.244Z,99533.73
2023-03-31T03:04:40.611Z,99524.08
2023-03-31T03:06:05.480Z,99533.67
2023-03-31T03:08:55.164Z,99527.95
2023-03-31T03:10:01.230Z,99532.91
2023-03-31T03:11:13.422Z,99532.87
2023-03-31T03:12:19.391Z,99531.09
2023-03-31T03:13:33.961Z,99525.80
2023-03-31T03:14:42.595Z,99523.08
2023-03-31T03:15:57.817Z,99527.52
2023-03-31T03:17:09.867Z,99534.53
2023-03-31T03:18:13.653Z,99530.02
2023-03-31T03:19:19.939Z,99539.74
2023-03-31T03:20:22.394Z,99532.59
2023-03-31T03:21:25.165Z,99538.84
2023-03-31T03:22:27.312Z,99532.64
2023-03-31T03:23:29.503Z,99523.08
2023-03-31T03:24:31.562Z,99523.98
2023-03-31T03:25:33.723Z,99531.09
2023-03-31T03:26:35.846Z,99531.96
2023-03-31T03:27:38.482Z,99528.47
2023-03-31T03:28:40.560Z,99522.36
2023-03-31T03:29:42.656Z,99524.17
2023-03-31T03:30:45.845Z,99519.83
2023-03-31T03:31:48.205Z,99509.32
2023-03-31T03:32:50.369Z,99518.11
2023-03-31T03:33:53.092Z,99507.65
2023-03-31T03:34:55.522Z,99506.89
2023-03-31T03:35:57.643Z,99510.55
2023-03-31T03:37:00.381Z,99507.92
2023-03-31T03:38:02.447Z,99509.73
2023-03-31T03:39:06.960Z,99503.58
2023-03-31T03:40:10.874Z,99496.61
2023-03-31T03:41:12.944Z,99507.11
2023-03-31T03:42:15.052Z,99504.48
2023-03-31T03:43:17.066Z,99503.63
2023-03-31T03:44:19.199Z,99509.73
2023-03-31T03:45:21.697Z,99504.48
2023-03-31T03:46:24.244Z,99511.45
2023-03-31T03:47:27.516Z,99509.73
2023-03-31T03:48:30.270Z,99508.83
2023-03-31T03:49:32.429Z,99501.86
2023-03-31T03:50:36.314Z,99498.33
2023-03-31T03:51:38.595Z,99501.86
2023-03-31T03:52:40.814Z,99508.02
2023-03-31T03:53:42.883Z,99503.63
2023-03-31T03:54:45.000Z,99500.14
2023-03-31T03:55:47.061Z,99502.77
2023-03-31T03:56:49.554Z,99493.98
2023-03-31T03:57:51.975Z,99488.82
2023-03-31T03:58:54.791Z,99488.82
2023-03-31T03:59:56.949Z,99487.11
2023-03-31T04:00:59.012Z,99489.73
2023-03-31T04:02:01.160Z,99479.18
2023-03-31T04:03:03.716Z,99487.96
2023-03-31T04:04:06.362Z,99499.33
2023-03-31T04:05:09.159Z,99487.11
2023-03-31T04:06:11.506Z,99502.00
2023-03-31T04:07:13.660Z,99491.55
2023-03-31T04:08:17.155Z,99487.96
2023-03-31T04:09:19.389Z,99490.64
2023-03-31T04:10:21.563Z,99487.11
2023-03-31T04:11:23.650Z,99487.11
2023-03-31T04:12:25.707Z,99485.39
2023-03-31T04:13:28.361Z,99496.75
2023-03-31T04:14:30.562Z,99494.17
2023-03-31T04:15:33.040Z,99496.84
2023-03-31T04:16:35.879Z,99490.73
2023-03-31T04:17:38.103Z,99482.98
2023-03-31T04:18:40.353Z,99490.86
2023-03-31T04:19:42.534Z,99480.31
2023-03-31T04:20:45.198Z,99485.48
2023-03-31T04:21:47.755Z,99486.42
2023-03-31T04:22:49.931Z,99480.31
2023-03-31T04:23:55.054Z,99476.83
2023-03-31T04:24:56.974Z,99470.77
2023-03-31T04:25:59.371Z,99475.16
2023-03-31T04:27:01.443Z,99477.78
2023-03-31T04:28:03.738Z,99469.05
2023-03-31T04:29:06.923Z,99480.45
2023-03-31T04:30:10.771Z,99470.81
2023-03-31T04:31:14.679Z,99471.67
2023-03-31T04:32:17.083Z,99468.23
2023-03-31T04:33:19.252Z,99470.00
2023-03-31T04:34:21.383Z,99464.80
2023-03-31T04:35:25.916Z,99475.30
2023-03-31T04:36:28.802Z,99477.92
2023-03-31T04:37:31.040Z,99475.30
2023-03-31T04:38:33.498Z,99476.97
2023-03-31T04:39:35.690Z,99468.23
2023-03-31T04:40:37.594Z,99464.70
2023-03-31T04:41:39.701Z,99462.93
2023-03-31T04:42:42.877Z,99465.52
2023-03-31T04:43:45.042Z,99462.89
2023-03-31T04:44:47.135Z,99461.16
2023-03-31T04:45:49.371Z,99457.68
2023-03-31T04:46:51.567Z,99458.49
2023-03-31T04:47:54.076Z,99459.35
2023-03-31T04:48:56.292Z,99460.21
2023-03-31T04:49:58.402Z,99461.07
2023-03-31T04:51:01.114Z,99454.96
2023-03-31T04:52:03.372Z,99457.53
2023-03-31T04:53:05.531Z,99453.20
2023-03-31T04:54:07.631Z,99448.72
2023-03-31T04:55:09.887Z,99448.62
2023-03-31T04:56:12.572Z,99448.62
2023-03-31T04:57:14.808Z,99451.25
2023-03-31T04:58:17.587Z,99448.62
2023-03-31T04:59:19.677Z,99451.25
2023-03-31T05:00:22.366Z,99445.09
2023-03-31T05:01:24.615Z,99437.22
2023-03-31T05:02:27.697Z,99447.67
2023-03-31T05:03:29.932Z,99445.91
2023-03-31T05:04:32.544Z,99449.39
2023-03-31T05:05:35.454Z,99447.57
2023-03-31T05:06:37.695Z,99441.36
2023-03-31T05:07:39.874Z,99442.17
2023-03-31T05:08:42.632Z,99448.20
2023-03-31T05:09:45.309Z,99444.80
2023-03-31T05:10:47.394Z,99441.23
2023-03-31T05:11:50.009Z,99445.66
2023-03-31T05:12:52.244Z,99444.80
2023-03-31T05:13:54.698Z,99440.41
2023-03-31T05:14:56.770Z,99445.66
2023-03-31T05:16:00.716Z,99442.95
2023-03-31T05:17:03.068Z,99442.90
2023-03-31T05:18:06.606Z,99442.84
2023-03-31T05:19:08.879Z,99441.03
2023-03-31T05:20:12.827Z,99438.36
2023-03-31T05:21:17.733Z,99436.59
2023-03-31T05:22:19.915Z,99437.40
2023-03-31T05:23:22.650Z,99434.72
2023-03-31T05:24:25.005Z,99437.30
2023-03-31T05:25:27.786Z,99438.07
2023-03-31T05:26:30.413Z,99431.00
2023-03-31T05:27:32.971Z,99421.35
2023-03-31T05:28:36.227Z,99426.55
2023-03-31T05:29:38.825Z,99416.95
2023-03-31T05:30:40.989Z,99420.39
2023-03-31T05:31:44.390Z,99422.06
2023-03-31T05:32:46.628Z,99419.38
2023-03-31T05:33:49.210Z,99416.75
2023-03-31T05:34:52.250Z,99408.82
2023-03-31T05:35:54.547Z,99410.53
2023-03-31T05:36:57.883Z,99398.26
2023-03-31T05:37:59.863Z,99408.63
2023-03-31T05:39:01.879Z,99411.20
2023-03-31T05:40:04.887Z,99404.98
2023-03-31T05:41:07.819Z,99402.36
2023-03-31T05:42:09.956Z,99406.70
2023-03-31T05:43:12.227Z,99403.92
2023-03-31T05:44:14.625Z,99404.78
2023-03-31T05:45:16.783Z,99399.38
2023-03-31T05:46:18.969Z,99401.95
2023-03-31T05:47:22.205Z,99405.39
2023-03-31T05:48:24.319Z,99395.69
2023-03-31T05:49:26.398Z,99391.28
2023-03-31T05:50:28.687Z,99390.38
2023-03-31T05:51:31.384Z,99391.23
2023-03-31T05:52:34.096Z,99390.27
2023-03-31T05:53:36.659Z,99393.70
2023-03-31T05:54:38.818Z,99383.19
2023-03-31T05:55:40.907Z,99387.53
2023-03-31T05:56:42.898Z,99382.19
2023-03-31T05:57:45.016Z,99386.59
2023-03-31T05:58:47.331Z,99391.84
2023-03-31T05:59:49.395Z,99376.07
2023-03-31T06:01:07.736Z,99376.92
2023-03-31T06:02:12.883Z,99375.16
2023-03-31T06:03:15.361Z,99359.38
2023-03-31T06:04:17.635Z,99354.02
2023-03-31T06:05:20.340Z,99357.50
2023-03-31T06:06:23.015Z,99359.27
2023-03-31T06:07:25.208Z,99358.47
2023-03-31T06:08:30.414Z,99362.77
2023-03-31T06:09:33.132Z,99360.19
2023-03-31T06:10:37.948Z,99361.91
2023-03-31T06:11:40.650Z,99366.30
2023-03-31T06:12:42.803Z,99367.16
2023-03-31T06:13:45.993Z,99363.73
2023-03-31T06:14:48.255Z,99361.16
2023-03-31T06:15:58.228Z,99363.88
2023-03-31T06:17:00.482Z,99360.44
2023-03-31T06:18:02.472Z,99351.64
2023-03-31T06:19:04.569Z,99343.81
2023-03-31T06:20:19.754Z,99348.16
2023-03-31T06:21:16.950Z,99345.53
2023-03-31T06:22:23.417Z,99341.08
2023-03-31T06:23:27.258Z,99349.06
2023-03-31T06:24:30.395Z,99348.20
2023-03-31T06:25:43.860Z,99350.78
2023-03-31T06:26:37.580Z,99354.27
2023-03-31T06:27:39.880Z,99352.61
2023-03-31T06:28:42.807Z,99352.55
2023-03-31T06:29:45.676Z,99344.67
2023-03-31T06:30:48.255Z,99341.12
2023-03-31T06:31:50.331Z,99342.84
2023-03-31T06:32:52.452Z,99339.16
2023-03-31T06:33:54.671Z,99337.33
2023-03-31T06:34:56.967Z,99343.34
2023-03-31T06:37:08.553Z,99338.34
2023-03-31T06:38:10.866Z,99336.05
2023-03-31T06:39:14.137Z,99330.73
2023-03-31T06:40:16.483Z,99332.39
2023-03-31T06:41:19.994Z,99334.11
2023-03-31T06:42:22.214Z,99324.39
2023-03-31T06:43:25.179Z,99333.99
2023-03-31T06:44:27.421Z,99331.30
2023-03-31T06:45:30.080Z,99331.30
2023-03-31T06:46:32.240Z,99328.62
2023-03-31T06:47:34.365Z,99324.16
2023-03-31T06:48:37.151Z,99322.36
2023-03-31T06:49:40.203Z,99326.70
2023-03-31T06:50:42.465Z,99314.41
2023-03-31T06:51:45.212Z,99317.84
2023-03-31T06:52:47.415Z,99309.95
2023-03-31T06:53:49.568Z,99319.55
2023-03-31T06:54:52.736Z,99326.53
2023-03-31T06:57:05.647Z,99330.37
2023-03-31T06:58:07.963Z,99328.19
2023-03-31T06:59:10.108Z,99336.94
2023-03-31T07:00:14.272Z,99342.08
2023-03-31T07:01:16.458Z,99340.36
2023-03-31T07:02:18.727Z,99339.45
2023-03-31T07:03:22.105Z,99335.90
2023-03-31T07:04:24.544Z,99342.08
2023-03-31T07:05:28.337Z,99345.56
2023-03-31T07:06:31.363Z,99334.19
2023-03-31T07:07:34.709Z,99335.90
2023-03-31T07:08:36.935Z,99331.50
2023-03-31T07:09:38.898Z,99331.41
2023-03-31T07:10:40.862Z,99322.80
2023-03-31T07:11:43.842Z,99320.12
2023-03-31T07:13:55.203Z,99328.42
2023-03-31T07:14:57.782Z,99322.80
2023-03-31T07:16:00.441Z,99321.95
2023-03-31T07:17:03.104Z,99329.84
2023-03-31T07:18:05.324Z,99315.77
2023-03-31T07:19:07.781Z,99315.63
2023-03-31T07:20:15.364Z,99319.97
2023-03-31T07:21:17.480Z,99314.70
2023-03-31T07:22:19.704Z,99312.13
2023-03-31T07:23:21.694Z,99314.70
2023-03-31T07:24:24.861Z,99311.16
2023-03-31T07:25:27.603Z,99312.88
2023-03-31T07:26:29.793Z,99307.61
2023-03-31T07:27:32.092Z,99307.61
2023-03-31T07:28:35.320Z,99310.19
2023-03-31T07:29:37.581Z,99312.88
2023-03-31T07:30:40.277Z,99306.75
2023-03-31T07:31:42.968Z,99307.61
2023-03-31T07:32:48.916Z,99304.06
2023-03-31T07:33:51.716Z,99306.58
2023-03-31T07:34:53.753Z,99295.14
2023-03-31T07:36:10.070Z,99301.20
2023-03-31T07:36:59.689Z,99289.76
2023-03-31T07:38:02.196Z,99296.73
2023-03-31T07:39:05.851Z,99298.36
2023-03-31T07:40:11.864Z,99300.01
2023-03-31T07:41:20.961Z,99292.91
2023-03-31T07:42:23.156Z,99291.94
2023-03-31T07:43:25.903Z,99291.87
2023-03-31T07:44:27.957Z,99287.41
2023-03-31T07:45:30.180Z,99293.53
2023-03-31T07:46:32.487Z,99294.38
2023-03-31T07:47:36.815Z,99285.57
2023-03-31T07:48:39.325Z,99288.20
2023-03-31T07:49:41.282Z,99288.11
2023-03-31T07:50:43.287Z,99292.39
2023-03-31T07:51:47.515Z,99290.50
2023-03-31T07:52:50.814Z,99286.88
2023-03-31T07:53:54.608Z,99284.06
2023-03-31T07:54:56.771Z,99283.11
2023-03-31T07:55:58.946Z,99284.77
2023-03-31T07:57:01.719Z,99288.19
2023-03-31T07:58:04.412Z,99280.30
2023-03-31T07:59:06.479Z,99276.74
2023-03-31T08:00:10.403Z,99284.52
2023-03-31T08:01:17.878Z,99287.02
2023-03-31T08:02:20.075Z,99284.23
2023-03-31T08:03:22.341Z,99278.84
2023-03-31T08:04:24.860Z,99273.45
2023-03-31T08:05:27.759Z,99266.21
2023-03-31T08:06:30.226Z,99274.91
2023-03-31T08:07:38.241Z,99262.50
2023-03-31T08:08:40.465Z,99262.37
2023-03-31T08:09:46.696Z,99267.50
2023-03-31T08:10:50.354Z,99263.82
2023-03-31T08:11:53.084Z,99260.10
2023-03-31T08:12:55.465Z,99264.38
2023-03-31T08:13:57.668Z,99265.11
2023-03-31T08:14:59.993Z,99264.12
2023-03-31T08:16:03.862Z,99264.84
2023-03-31T08:17:06.262Z,99266.39
2023-03-31T08:18:08.834Z,99250.31
2023-03-31T08:19:10.953Z,99265.14
2023-03-31T08:20:14.452Z,99257.00
2023-03-31T08:21:16.708Z,99251.59
2023-03-31T08:22:19.160Z,99256.73
2023-03-31T08:23:21.621Z,99251.39
2023-03-31T08:24:23.821Z,99249.47
2023-03-31T08:25:26.183Z,99247.52
2023-03-31T08:26:28.334Z,99252.59
2023-03-31T08:28:45.910Z,99236.94
2023-03-31T08:29:48.054Z,99240.77
2023-03-31T08:30:51.267Z,99232.80
2023-03-31T08:31:54.594Z,99234.44
2023-03-31T08:32:57.311Z,99231.73
2023-03-31T08:33:59.517Z,99234.22
2023-03-31T08:35:02.141Z,99232.38
2023-03-31T08:36:06.784Z,99233.16
2023-03-31T08:37:10.802Z,99233.05
2023-03-31T08:38:12.872Z,99235.69
2023-03-31T08:39:14.861Z,99232.06
2023-03-31T08:40:20.114Z,99230.20
2023-03-31T08:41:52.055Z,99227.50
2023-03-31T08:43:11.928Z,99227.42
2023-03-31T08:45:36.436Z,99225.75
2023-03-31T08:46:41.222Z,99223.55
2023-03-31T08:47:46.542Z,99226.97
2023-03-31T08:48:52.813Z,99224.33
2023-03-31T08:50:01.367Z,99215.48
2023-03-31T08:52:28.587Z,99219.30
2023-03-31T08:53:34.430Z,99218.91
2023-03-31T08:54:45.959Z,99212.70
2023-03-31T08:55:54.082Z,99222.33
2023-03-31T08:56:57.861Z,99217.91
2023-03-31T08:59:28.415Z,99216.44
2023-03-31T09:02:04.788Z,99214.51
2023-03-31T09:03:16.798Z,99213.34
2023-03-31T09:04:39.732Z,99217.59
2023-03-31T09:05:59.411Z,99216.59
2023-03-31T09:06:59.346Z,99212.95
2023-03-31T09:08:32.809Z,99212.02
2023-03-31T09:10:53.334Z,99206.12
2023-03-31T09:11:59.227Z,99202.17
2023-03-31T09:13:26.885Z,99210.87
2023-03-31T09:14:42.472Z,99198.45
2023-03-31T09:17:24.636Z,99195.78
2023-03-31T09:18:33.282Z,99190.13
2023-03-31T09:19:40.044Z,99194.41
2023-03-31T09:20:46.398Z,99187.27
2023-03-31T09:21:51.955Z,99190.69
2023-03-31T09:23:29.858Z,99193.22
2023-03-31T09:24:36.094Z,99197.50
2023-03-31T09:25:39.494Z,99193.84
2023-03-31T09:26:45.818Z,99192.77
2023-03-31T09:27:51.081Z,99183.06
2023-03-31T09:28:56.547Z,99176.77
2023-03-31T09:30:11.252Z,99174.88
2023-03-31T09:31:17.002Z,99184.44
2023-03-31T09:32:31.127Z,99187.85
2023-03-31T09:33:33.410Z,99186.92
2023-03-31T09:34:35.594Z,99182.42
2023-03-31T09:35:38.302Z,99184.98
2023-03-31T09:36:41.654Z,99186.69
2023-03-31T09:37:44.086Z,99183.13
2023-03-31T09:38:46.857Z,99176.83
2023-03-31T09:39:49.715Z,99174.94
2023-03-31T09:40:52.573Z,99173.92
2023-03-31T09:41:55.404Z,99179.13
2023-03-31T09:43:06.795Z,99177.27
2023-03-31T09:45:21.656Z,99159.67
2023-03-31T09:46:31.016Z,99159.28
2023-03-31T09:47:37.143Z,99165.27
2023-03-31T09:48:41.469Z,99152.83
2023-03-31T09:49:53.903Z,99157.10
2023-03-31T09:50:54.434Z,99158.73
2023-03-31T09:52:04.301Z,99154.97
2023-03-31T09:53:10.530Z,99155.74
2023-03-31T09:54:22.788Z,99152.00
2023-03-31T09:55:38.864Z,99150.14
2023-03-31T09:56:36.549Z,99143.75
2023-03-31T09:57:40.270Z,99146.20
2023-03-31T09:58:44.911Z,99146.04
2023-03-31T09:59:50.132Z,99148.52
2023-03-31T10:01:07.210Z,99142.99
2023-03-31T10:02:36.772Z,99145.36
2023-03-31T10:03:51.287Z,99146.05
2023-03-31T10:04:55.030Z,99144.87
2023-03-31T10:05:57.910Z,99135.80
2023-03-31T10:07:02.725Z,99137.42
2023-03-31T10:08:20.648Z,99124.89
2023-03-31T10:09:29.602Z,99131.89
2023-03-31T10:10:33.898Z,99126.44
2023-03-31T10:11:37.006Z,99130.78
2023-03-31T10:12:39.602Z,99133.23
2023-03-31T10:14:01.983Z,99130.58
2023-03-31T10:16:36.885Z,99121.77
2023-03-31T10:17:53.776Z,99124.11
2023-03-31T10:18:47.991Z,99124.02
2023-03-31T10:21:25.319Z,99113.41
2023-03-31T10:22:32.037Z,99117.42
2023-03-31T10:23:35.398Z,99115.63
2023-03-31T10:25:50.976Z,99106.07
2023-03-31T10:26:56.691Z,99114.52
2023-03-31T10:28:02.089Z,99118.02
2023-03-31T10:29:10.780Z,99109.14
2023-03-31T10:31:37.276Z,99103.13
2023-03-31T10:32:42.756Z,99101.98
2023-03-31T10:33:48.685Z,99110.68
2023-03-31T10:34:50.974Z,99108.80
2023-03-31T10:35:58.459Z,99102.66
2023-03-31T10:37:04.202Z,99099.92
2023-03-31T10:38:16.499Z,99106.89
2023-03-31T10:39:19.402Z,99106.89
2023-03-31T10:40:26.160Z,99102.45
2023-03-31T10:41:30.539Z,99092.72
2023-03-31T10:42:33.012Z,99104.07
2023-03-31T10:47:53.437Z,99094.67
2023-03-31T10:48:59.863Z,99094.25
2023-03-31T10:50:04.894Z,99099.55
2023-03-31T10:51:23.160Z,99088.96
2023-03-31T10:52:26.901Z,99093.31
2023-03-31T10:53:30.286Z,99090.67
2023-03-31T10:54:32.921Z,99088.79
2023-03-31T10:55:44.907Z,99092.20
2023-03-31T10:56:52.594Z,99085.03
2023-03-31T10:57:59.973Z,99092.11
2023-03-31T10:59:26.651Z,99085.03
2023-03-31T11:00:41.453Z,99084.82
2023-03-31T11:02:17.999Z,99075.94
2023-03-31T11:03:26.027Z,99079.35
2023-03-31T11:04:32.418Z,99082.77
2023-03-31T11:05:53.306Z,99084.47
2023-03-31T11:07:14.058Z,99082.59
2023-03-31T11:08:32.311Z,99079.89
2023-03-31T11:11:05.150Z,99071.11
2023-03-31T11:13:44.498Z,99067.52
2023-03-31T11:15:11.710Z,99073.56
2023-03-31T11:16:41.650Z,99073.35
2023-03-31T11:18:05.932Z,99068.91
2023-03-31T11:19:31.867Z,99062.59
2023-03-31T11:21:02.180Z,99063.44
2023-03-31T11:23:44.230Z,99056.54
2023-03-31T11:25:08.623Z,99058.91
2023-03-31T11:26:14.932Z,99060.52
2023-03-31T11:29:21.506Z,99057.21
2023-03-31T11:30:33.604Z,99056.08
2023-03-31T11:32:55.565Z,99055.23
2023-03-31T11:34:17.021Z,99055.05
2023-03-31T11:35:32.396Z,99045.31
2023-03-31T11:36:56.280Z,99045.19
2023-03-31T11:38:24.114Z,99045.95
2023-03-31T11:39:42.378Z,99047.66
2023-03-31T11:42:24.360Z,99040.74
2023-03-31T11:43:37.101Z,99044.92
2023-03-31T11:44:53.824Z,99043.88
2023-03-31T11:46:12.173Z,99040.29
2023-03-31T11:47:17.964Z,99035.00
2023-03-31T11:49:41.177Z,99032.52
2023-03-31T11:50:46.654Z,99036.70
2023-03-31T11:53:19.120Z,99022.59
2023-03-31T11:54:40.535Z,99032.92
2023-03-31T11:55:47.032Z,99025.70
2023-03-31T11:56:50.474Z,99025.52
2023-03-31T11:59:19.657Z,99021.38
2023-03-31T12:00:26.730Z,99018.52
2023-03-31T12:03:11.474Z,99021.16
2023-03-31T12:04:32.445Z,99020.80
2023-03-31T12:05:41.172Z,99013.62
2023-03-31T12:06:46.360Z,99020.53
2023-03-31T12:07:58.381Z,99001.86
2023-03-31T12:09:16.442Z,99007.91
2023-03-31T12:10:22.053Z,99006.02
2023-03-31T12:11:30.578Z,99009.43
2023-03-31T12:12:45.551Z,99004.13
2023-03-31T12:14:26.267Z,99003.19
2023-03-31T12:15:46.423Z,99000.53
2023-03-31T12:18:19.889Z,98989.25
2023-03-31T12:19:25.742Z,98997.89
2023-03-31T12:20:34.231Z,98989.94
2023-03-31T12:21:39.952Z,98993.44
2023-03-31T12:22:48.278Z,98993.34
2023-03-31T12:23:50.507Z,98994.30
2023-03-31T12:24:52.854Z,98990.89
2023-03-31T12:26:08.230Z,98992.41
2023-03-31T12:28:31.715Z,98985.66
2023-03-31T12:29:40.708Z,98989.00
2023-03-31T12:30:45.437Z,98986.25
2023-03-31T12:31:52.533Z,98986.25
2023-03-31T12:34:10.626Z,98970.51
2023-03-31T12:36:34.483Z,98973.06
2023-03-31T12:38:02.414Z,98974.48
2023-03-31T12:39:20.164Z,98975.34
2023-03-31T12:40:41.696Z,98969.84
2023-03-31T12:42:02.341Z,98971.45
2023-03-31T12:43:11.221Z,98961.70
2023-03-31T12:44:37.660Z,98964.27
2023-03-31T12:47:26.689Z,98954.66
2023-03-31T12:48:44.673Z,98957.92
2023-03-31T12:50:06.978Z,98956.87
2023-03-31T12:53:03.883Z,98955.98
2023-03-31T12:54:30.251Z,98950.50
2023-03-31T12:55:42.198Z,98949.45
2023-03-31T12:57:02.799Z,98948.51
2023-03-31T12:58:27.874Z,98943.11
2023-03-31T12:59:37.449Z,98944.81
2023-03-31T13:00:49.525Z,98941.22
2023-03-31T13:03:37.230Z,98945.70
2023-03-31T13:05:48.339Z,98939.45
2023-03-31T13:06:52.688Z,98941.87
2023-03-31T13:07:55.411Z,98948.03
2023-03-31T13:09:02.173Z,98949.73
2023-03-31T13:10:20.964Z,98943.45
2023-03-31T13:11:35.751Z,98944.30
2023-03-31T13:12:38.032Z,98942.50
2023-03-31T13:15:05.284Z,98931.11
2023-03-31T13:16:07.842Z,98929.14
2023-03-31T13:17:26.369Z,98930.00
2023-03-31T13:18:32.344Z,98929.90
2023-03-31T13:19:36.374Z,98928.00
2023-03-31T13:20:41.295Z,98926.20
2023-03-31T13:21:55.845Z,98925.25
2023-03-31T13:23:07.367Z,98926.10
2023-03-31T13:24:10.143Z,98926.00
2023-03-31T13:25:31.227Z,98922.41
2023-03-31T13:26:36.803Z,98927.70
2023-03-31T13:27:42.559Z,98927.61
2023-03-31T13:28:45.177Z,98919.66
2023-03-31T13:29:47.887Z,98916.05
2023-03-31T13:30:59.225Z,98917.00
2023-03-31T13:32:05.048Z,98918.70
2023-03-31T13:33:18.364Z,98916.88
2023-03-31T13:34:21.372Z,98908.91
2023-03-31T13:35:27.622Z,98905.45
2023-03-31T13:36:33.932Z,98902.89
2023-03-31T13:37:49.321Z,98906.40
2023-03-31T13:39:07.672Z,98909.05
2023-03-31T13:40:23.456Z,98906.27
2023-03-31T13:41:32.272Z,98900.97
2023-03-31T13:42:50.379Z,98894.84
2023-03-31T13:44:18.669Z,98897.49
2023-03-31T13:45:29.626Z,98893.99
2023-03-31T13:46:52.244Z,98895.66
2023-03-31T13:48:01.209Z,98896.64
2023-03-31T13:49:13.049Z,98894.94
2023-03-31T13:51:58.213Z,98885.41
2023-03-31T13:53:24.222Z,98895.05
2023-03-31T13:54:39.398Z,98898.55
2023-03-31T13:56:14.975Z,98904.70
2023-03-31T13:57:29.923Z,98895.89
2023-03-31T13:58:42.055Z,98898.55
2023-03-31T13:59:51.301Z,98895.89
2023-03-31T14:01:26.144Z,98892.39
2023-03-31T14:02:38.262Z,98890.59
2023-03-31T14:03:53.458Z,98887.94
2023-03-31T14:06:48.075Z,98886.36
2023-03-31T14:08:00.136Z,98881.88
2023-03-31T14:09:08.758Z,98890.59
2023-03-31T14:11:41.386Z,98891.66
2023-03-31T14:12:43.718Z,98882.73
2023-03-31T14:14:04.603Z,98890.59
2023-03-31T14:15:10.855Z,98893.24
2023-03-31T14:16:14.881Z,98884.44
2023-03-31T14:17:17.140Z,98888.89
2023-03-31T14:18:25.855Z,98883.59
2023-03-31T14:19:59.672Z,98887.09
2023-03-31T14:21:14.467Z,98885.28
2023-03-31T14:22:28.270Z,98888.89
2023-03-31T14:23:51.850Z,98878.28
2023-03-31T14:25:15.804Z,98880.94
2023-03-31T14:26:30.799Z,98882.73
2023-03-31T14:27:42.630Z,98877.44